West Lebanon, New York
Current Conditions -  °F | °C
As of 9:54 AM on Friday 24 Oct 2014 (Local Time) from KPSF Reporting Station
Overcast Overcast  
Wind Chill: 39°   Ceiling: 1100
Heat Index: 43°   Visibility: 10mi
Dew Point: 40°   Wind: 7mph
Humidity: 89%   Direction: 330°NNW
Pressure: 29.8"   Gusts: NA
Location:  42.49°N, 73.47°W
Report Text: KPSF 241354Z AUTO 33006KT 10SM BKN011 BKN030 OVC037 06/04 A2980 RMK AO2 RAB1259E13 SLP089 P0000 T00610044
Loading
Personal Weather Stations






























Interactive Weather Map
Tropical Storm Tracking
New forecast layout! Learn more

10-Day Weather Forecast

Advertisements
Track Severe Weather on mobile